createdAt,value
2019-03-01T00:00:15.436Z,0.00
2019-03-01T00:01:15.409Z,0.00
2019-03-01T00:02:15.432Z,0.00
2019-03-01T00:03:15.401Z,0.00
2019-03-01T00:04:15.369Z,0.00
2019-03-01T00:05:15.370Z,0.00
2019-03-01T00:06:15.341Z,0.00
2019-03-01T00:07:15.358Z,0.00
2019-03-01T00:08:15.328Z,0.00
2019-03-01T00:09:15.304Z,0.00
2019-03-01T00:10:15.300Z,0.00
2019-03-01T00:11:15.288Z,0.00
2019-03-01T00:12:15.282Z,0.00
2019-03-01T00:13:15.309Z,0.00
2019-03-01T00:14:15.258Z,0.00
2019-03-01T00:15:15.242Z,0.00
2019-03-01T00:16:15.228Z,0.00
2019-03-01T00:17:15.227Z,0.00
2019-03-01T00:18:15.218Z,0.00
2019-03-01T00:19:15.229Z,0.00
2019-03-01T00:20:15.189Z,0.00
2019-03-01T00:21:15.177Z,0.00
2019-03-01T00:22:15.168Z,0.00
2019-03-01T00:23:15.206Z,0.00
2019-03-01T00:24:15.156Z,0.00
2019-03-01T00:25:15.176Z,0.00
2019-03-01T00:26:15.118Z,0.00
2019-03-01T00:27:15.111Z,0.00
2019-03-01T00:28:15.098Z,0.00
2019-03-01T00:29:15.092Z,0.00
2019-03-01T00:30:15.134Z,0.00
2019-03-01T00:31:15.070Z,0.00
2019-03-01T00:32:15.060Z,0.00
2019-03-01T00:33:15.051Z,0.00
2019-03-01T00:34:15.031Z,0.00
2019-03-01T00:35:15.050Z,0.00
2019-03-01T00:36:15.019Z,0.00
2019-03-01T00:37:15.010Z,0.00
2019-03-01T00:38:14.987Z,0.00
2019-03-01T00:39:14.992Z,0.00
2019-03-01T00:40:15.001Z,0.00
2019-03-01T00:41:14.967Z,0.00
2019-03-01T00:42:14.954Z,0.00
2019-03-01T00:43:14.950Z,0.00
2019-03-01T00:44:14.929Z,0.00
2019-03-01T00:45:14.921Z,0.00
2019-03-01T00:46:14.945Z,0.00
2019-03-01T00:47:14.907Z,0.00
2019-03-01T00:48:14.886Z,0.00
2019-03-01T00:49:14.876Z,0.00
2019-03-01T00:50:14.867Z,0.00
2019-03-01T00:51:14.910Z,0.00
2019-03-01T00:52:14.842Z,0.00
2019-03-01T00:53:14.826Z,0.00
2019-03-01T00:54:14.833Z,0.00
2019-03-01T00:55:14.832Z,0.00
2019-03-01T00:56:14.881Z,0.00
2019-03-01T00:57:14.794Z,0.00
2019-03-01T00:58:14.791Z,0.00
2019-03-01T00:59:14.796Z,0.00
2019-03-01T01:00:14.790Z,0.00
2019-03-01T01:01:14.788Z,0.00
2019-03-01T01:02:14.740Z,0.00
2019-03-01T01:03:14.722Z,0.00
2019-03-01T01:04:14.719Z,0.00
2019-03-01T01:05:14.741Z,0.00
2019-03-01T01:06:14.728Z,0.00
2019-03-01T01:07:14.716Z,0.00
2019-03-01T01:08:14.781Z,0.00
2019-03-01T01:09:14.795Z,0.00
2019-03-01T01:10:14.748Z,0.00
2019-03-01T01:11:14.654Z,0.00
2019-03-01T01:12:14.681Z,0.00
2019-03-01T01:13:14.610Z,0.00
2019-03-01T01:14:14.611Z,0.00
2019-03-01T01:15:14.597Z,0.00
2019-03-01T01:16:14.591Z,0.00
2019-03-01T01:17:14.599Z,0.00
2019-03-01T01:18:14.557Z,0.00
2019-03-01T01:19:14.549Z,0.00
2019-03-01T01:20:14.558Z,0.00
2019-03-01T01:21:14.529Z,0.00
2019-03-01T01:22:14.552Z,0.00
2019-03-01T01:23:14.514Z,0.00
2019-03-01T01:24:14.503Z,0.00
2019-03-01T01:25:14.479Z,0.00
2019-03-01T01:26:14.492Z,0.00
2019-03-01T01:27:14.543Z,0.00
2019-03-01T01:28:14.469Z,0.00
2019-03-01T01:29:14.451Z,0.00
2019-03-01T01:30:14.447Z,0.00
2019-03-01T01:31:14.427Z,0.00
2019-03-01T01:32:14.409Z,0.00
2019-03-01T01:33:14.445Z,0.00
2019-03-01T01:34:14.428Z,0.00
2019-03-01T01:35:14.388Z,0.00
2019-03-01T01:36:14.368Z,0.00
2019-03-01T01:37:14.358Z,0.00
2019-03-01T01:38:14.379Z,0.00
2019-03-01T01:39:14.339Z,0.00
2019-03-01T01:40:14.383Z,0.00
2019-03-01T01:41:14.317Z,0.00
2019-03-01T01:42:14.344Z,0.00
2019-03-01T01:43:14.285Z,0.00
2019-03-01T01:44:14.283Z,0.00
2019-03-01T01:45:14.305Z,0.00
2019-03-01T01:46:14.261Z,0.00
2019-03-01T01:47:14.304Z,0.00
2019-03-01T01:48:14.238Z,0.00
2019-03-01T01:49:14.231Z,0.00
2019-03-01T01:50:14.216Z,0.00
2019-03-01T01:51:14.202Z,0.00
2019-03-01T01:52:14.240Z,0.00
2019-03-01T01:53:14.184Z,0.00
2019-03-01T01:54:14.174Z,0.00
2019-03-01T01:55:14.164Z,0.00
2019-03-01T01:56:14.162Z,0.00
2019-03-01T01:57:14.139Z,0.00
2019-03-01T01:58:14.154Z,0.00
2019-03-01T01:59:14.121Z,0.00
2019-03-01T02:00:14.112Z,0.00
2019-03-01T02:01:14.107Z,0.00
2019-03-01T02:02:14.115Z,0.00
2019-03-01T02:03:14.065Z,0.00
2019-03-01T02:04:14.063Z,0.00
2019-03-01T02:05:14.048Z,0.00
2019-03-01T02:06:14.045Z,0.00
2019-03-01T02:07:14.071Z,0.00
2019-03-01T02:08:14.030Z,0.00
2019-03-01T02:09:14.013Z,0.00
2019-03-01T02:10:14.004Z,0.00
2019-03-01T02:11:13.983Z,0.00
2019-03-01T02:12:13.981Z,0.00
2019-03-01T02:13:14.022Z,0.00
2019-03-01T02:14:13.951Z,0.00
2019-03-01T02:15:13.940Z,0.00
2019-03-01T02:16:13.939Z,0.00
2019-03-01T02:17:14.014Z,0.00
2019-03-01T02:18:13.964Z,0.00
2019-03-01T02:19:13.912Z,0.00
2019-03-01T02:20:13.984Z,0.00
2019-03-01T02:21:13.881Z,0.00
2019-03-01T02:22:13.869Z,0.00
2019-03-01T02:23:13.859Z,0.00
2019-03-01T02:24:13.895Z,0.00
2019-03-01T02:25:13.838Z,0.00
2019-03-01T02:26:13.918Z,0.00
2019-03-01T02:27:13.821Z,0.00
2019-03-01T02:28:13.879Z,0.00
2019-03-01T02:29:13.862Z,0.00
2019-03-01T02:30:13.810Z,0.00
2019-03-01T02:31:13.783Z,0.00
2019-03-01T02:32:13.770Z,0.00
2019-03-01T02:33:13.801Z,0.00
2019-03-01T02:34:13.780Z,0.00
2019-03-01T02:35:13.728Z,0.00
2019-03-01T02:36:13.716Z,0.00
2019-03-01T02:37:13.717Z,0.00
2019-03-01T02:38:13.753Z,0.00
2019-03-01T02:39:13.696Z,0.00
2019-03-01T02:40:13.706Z,0.00
2019-03-01T02:41:13.668Z,0.00
2019-03-01T02:42:13.651Z,0.00
2019-03-01T02:43:13.646Z,0.00
2019-03-01T02:44:13.642Z,0.00
2019-03-01T02:45:13.675Z,0.00
2019-03-01T02:46:13.653Z,0.00
2019-03-01T02:47:13.598Z,0.00
2019-03-01T02:48:13.590Z,0.00
2019-03-01T02:49:13.578Z,0.00
2019-03-01T02:50:13.580Z,0.00
2019-03-01T02:51:13.597Z,0.00
2019-03-01T02:52:13.557Z,0.00
2019-03-01T02:53:13.544Z,0.00
2019-03-01T02:54:13.528Z,0.00
2019-03-01T02:55:13.521Z,0.00
2019-03-01T02:56:13.526Z,0.00
2019-03-01T02:57:13.492Z,0.00
2019-03-01T02:58:13.491Z,0.00
2019-03-01T02:59:13.474Z,0.00
2019-03-01T03:00:13.463Z,0.00
2019-03-01T03:01:13.497Z,0.00
2019-03-01T03:02:13.451Z,0.00
2019-03-01T03:03:13.432Z,0.00
2019-03-01T03:04:13.435Z,0.00
2019-03-01T03:05:13.418Z,0.00
2019-03-01T03:06:13.443Z,0.00
2019-03-01T03:07:13.390Z,0.00
2019-03-01T03:08:13.374Z,0.00
2019-03-01T03:09:13.367Z,0.00
2019-03-01T03:10:13.359Z,0.00
2019-03-01T03:11:13.443Z,0.00
2019-03-01T03:12:13.342Z,0.00
2019-03-01T03:13:13.334Z,0.00
2019-03-01T03:14:13.329Z,0.00
2019-03-01T03:15:13.300Z,0.00
2019-03-01T03:16:13.326Z,0.00
2019-03-01T03:17:13.332Z,0.00
2019-03-01T03:18:13.263Z,0.00
2019-03-01T03:19:13.262Z,0.00
2019-03-01T03:20:13.242Z,0.00
2019-03-01T03:21:13.236Z,0.00
2019-03-01T03:22:13.752Z,0.00
2019-03-01T03:23:13.230Z,0.00
2019-03-01T03:24:13.203Z,0.00
2019-03-01T03:25:13.201Z,0.00
2019-03-01T03:26:13.190Z,0.00
2019-03-01T03:27:13.164Z,0.00
2019-03-01T03:28:13.223Z,0.00
2019-03-01T03:29:13.163Z,0.00
2019-03-01T03:30:13.146Z,0.00
2019-03-01T03:31:13.142Z,0.00
2019-03-01T03:32:13.116Z,0.00
2019-03-01T03:33:13.129Z,0.00
2019-03-01T03:34:13.101Z,0.00
2019-03-01T03:35:13.092Z,0.00
2019-03-01T03:36:13.091Z,0.00
2019-03-01T03:37:13.075Z,0.00
2019-03-01T03:38:13.091Z,0.00
2019-03-01T03:39:13.045Z,0.00
2019-03-01T03:40:13.091Z,0.00
2019-03-01T03:41:13.021Z,0.00
2019-03-01T03:42:13.002Z,0.00
2019-03-01T03:43:12.996Z,0.00
2019-03-01T03:44:13.016Z,0.00
2019-03-01T03:45:12.972Z,0.00
2019-03-01T03:46:12.979Z,0.00
2019-03-01T03:47:12.955Z,0.00
2019-03-01T03:48:12.941Z,0.00
2019-03-01T03:49:12.965Z,0.00
2019-03-01T03:50:12.918Z,0.00
2019-03-01T03:51:12.907Z,0.00
2019-03-01T03:52:12.892Z,0.00
2019-03-01T03:53:12.887Z,0.00
2019-03-01T03:54:12.873Z,0.00
2019-03-01T03:55:12.898Z,0.00
2019-03-01T03:56:12.848Z,0.00
2019-03-01T03:57:12.839Z,0.00
2019-03-01T03:58:12.840Z,0.00
2019-03-01T03:59:12.818Z,0.00
2019-03-01T04:00:12.854Z,0.00
2019-03-01T04:01:12.826Z,0.00
2019-03-01T04:02:12.834Z,0.00
2019-03-01T04:03:12.780Z,0.00
2019-03-01T04:04:12.769Z,0.00
2019-03-01T04:05:12.761Z,0.00
2019-03-01T04:06:12.777Z,0.00
2019-03-01T04:07:12.737Z,0.00
2019-03-01T04:08:12.723Z,0.00
2019-03-01T04:09:12.718Z,0.00
2019-03-01T04:10:12.721Z,0.00
2019-03-01T04:11:12.748Z,0.00
2019-03-01T04:12:12.691Z,0.00
2019-03-01T04:13:12.705Z,0.00
2019-03-01T04:14:12.676Z,0.00
2019-03-01T04:15:12.648Z,0.00
2019-03-01T04:16:12.669Z,0.00
2019-03-01T04:17:12.634Z,0.00
2019-03-01T04:18:12.637Z,0.00
2019-03-01T04:19:12.613Z,0.00
2019-03-01T04:20:12.618Z,0.00
2019-03-01T04:21:12.590Z,0.00
2019-03-01T04:22:12.609Z,0.00
2019-03-01T04:23:12.579Z,0.00
2019-03-01T04:24:12.567Z,0.00
2019-03-01T04:25:12.554Z,0.00
2019-03-01T04:26:12.546Z,0.00
2019-03-01T04:27:12.567Z,0.00
2019-03-01T04:28:12.511Z,0.00
2019-03-01T04:29:12.500Z,0.00
2019-03-01T04:30:12.500Z,0.00
2019-03-01T04:31:12.493Z,0.00
2019-03-01T04:32:12.469Z,0.00
2019-03-01T04:33:12.491Z,0.00
2019-03-01T04:34:12.445Z,0.00
2019-03-01T04:35:12.435Z,0.00
2019-03-01T04:36:12.434Z,0.00
2019-03-01T04:37:12.464Z,0.00
2019-03-01T04:38:12.435Z,0.00
2019-03-01T04:39:12.391Z,0.00
2019-03-01T04:40:12.384Z,0.00
2019-03-01T04:41:12.370Z,0.00
2019-03-01T04:42:12.376Z,0.00
2019-03-01T04:43:12.391Z,0.00
2019-03-01T04:44:12.340Z,0.00
2019-03-01T04:45:12.336Z,0.00
2019-03-01T04:46:12.317Z,0.00
2019-03-01T04:47:12.308Z,0.00
2019-03-01T04:48:12.296Z,0.00
2019-03-01T04:49:12.311Z,0.00
2019-03-01T04:50:12.281Z,0.00
2019-03-01T04:51:12.277Z,0.00
2019-03-01T04:52:12.256Z,0.00
2019-03-01T04:53:12.271Z,0.00
2019-03-01T04:54:12.248Z,0.00
2019-03-01T04:55:12.268Z,0.00
2019-03-01T04:56:12.212Z,0.00
2019-03-01T04:57:12.202Z,0.00
2019-03-01T04:58:12.183Z,0.00
2019-03-01T04:59:12.205Z,0.00
2019-03-01T05:00:12.161Z,0.00
2019-03-01T05:01:12.158Z,0.00
2019-03-01T05:02:12.157Z,0.00
2019-03-01T05:03:12.135Z,0.00
2019-03-01T05:04:12.274Z,0.00
2019-03-01T05:05:12.153Z,0.00
2019-03-01T05:06:12.093Z,0.00
2019-03-01T05:07:12.093Z,0.00
2019-03-01T05:08:12.086Z,0.00
2019-03-01T05:09:12.076Z,0.00
2019-03-01T05:10:12.121Z,0.00
2019-03-01T05:11:12.058Z,0.00
2019-03-01T05:12:12.032Z,0.00
2019-03-01T05:13:12.033Z,0.00
2019-03-01T05:14:12.021Z,0.00
2019-03-01T05:15:12.039Z,0.00
2019-03-01T05:16:11.995Z,0.00
2019-03-01T05:17:11.990Z,0.00
2019-03-01T05:18:11.967Z,0.00
2019-03-01T05:19:11.963Z,0.00
2019-03-01T05:20:11.981Z,0.00
2019-03-01T05:21:11.947Z,0.00
2019-03-01T05:22:11.931Z,0.00
2019-03-01T05:23:11.921Z,0.00
2019-03-01T05:24:11.906Z,0.00
2019-03-01T05:25:11.940Z,0.00
2019-03-01T05:26:11.883Z,0.00
2019-03-01T05:27:11.898Z,0.00
2019-03-01T05:28:11.859Z,0.00
2019-03-01T05:29:11.855Z,0.00
2019-03-01T05:30:11.831Z,0.00
2019-03-01T05:31:11.819Z,0.00
2019-03-01T05:32:11.806Z,0.00
2019-03-01T05:33:11.835Z,0.00
2019-03-01T05:34:11.793Z,0.00
2019-03-01T05:35:11.912Z,0.00
2019-03-01T05:36:11.814Z,0.00
2019-03-01T05:37:11.760Z,0.00
2019-03-01T05:38:11.745Z,0.00
2019-03-01T05:39:11.739Z,0.00
2019-03-01T05:40:11.733Z,0.00
2019-03-01T05:41:11.739Z,0.00
2019-03-01T05:42:11.745Z,0.00
2019-03-01T05:43:11.695Z,0.00
2019-03-01T05:44:11.686Z,0.00
2019-03-01T05:45:11.669Z,0.00
2019-03-01T05:46:11.697Z,0.00
2019-03-01T05:47:11.654Z,0.00
2019-03-01T05:48:11.669Z,0.00
2019-03-01T05:49:11.637Z,0.00
2019-03-01T05:50:11.620Z,0.00
2019-03-01T05:51:11.608Z,0.00
2019-03-01T05:52:11.630Z,0.00
2019-03-01T05:53:11.587Z,0.00
2019-03-01T05:54:11.579Z,0.00
2019-03-01T05:55:11.592Z,0.00
2019-03-01T05:56:11.596Z,0.00
2019-03-01T05:57:11.542Z,0.00
2019-03-01T05:58:16.542Z,0.00
2019-03-01T05:59:12.527Z,0.00
2019-03-01T06:00:11.513Z,0.00
2019-03-01T06:01:11.503Z,0.00
2019-03-01T06:02:11.488Z,0.00
2019-03-01T06:03:11.511Z,0.00
2019-03-01T06:04:11.470Z,0.00
2019-03-01T06:05:11.454Z,0.00
2019-03-01T06:06:11.450Z,0.00
2019-03-01T06:07:11.443Z,0.00
2019-03-01T06:08:11.450Z,0.00
2019-03-01T06:09:11.459Z,0.00
2019-03-01T06:10:11.419Z,0.00
2019-03-01T06:11:11.428Z,0.00
2019-03-01T06:12:11.383Z,0.00
2019-03-01T06:13:11.375Z,0.00
2019-03-01T06:14:11.362Z,5.62
2019-03-01T06:15:11.382Z,5.62
2019-03-01T06:16:11.346Z,5.62
2019-03-01T06:17:11.324Z,5.62
2019-03-01T06:18:11.324Z,5.62
2019-03-01T06:19:11.344Z,5.62
2019-03-01T06:20:11.303Z,5.62
2019-03-01T06:21:11.298Z,5.62
2019-03-01T06:22:11.277Z,5.62
2019-03-01T06:23:11.262Z,5.62
2019-03-01T06:24:11.252Z,5.62
2019-03-01T06:25:11.287Z,5.62
2019-03-01T06:26:11.247Z,5.62
2019-03-01T06:27:11.239Z,5.62
2019-03-01T06:28:11.212Z,5.62
2019-03-01T06:29:11.228Z,5.62
2019-03-01T06:30:11.188Z,5.62
2019-03-01T06:31:11.243Z,5.62
2019-03-01T06:32:11.175Z,5.62
2019-03-01T06:33:11.161Z,5.62
2019-03-01T06:34:11.155Z,5.62
2019-03-01T06:35:11.139Z,5.62
2019-03-01T06:36:11.122Z,5.62
2019-03-01T06:37:11.140Z,5.62
2019-03-01T06:38:11.117Z,5.62
2019-03-01T06:39:11.099Z,5.62
2019-03-01T06:40:11.116Z,5.62
2019-03-01T06:41:11.123Z,5.62
2019-03-01T06:42:11.078Z,5.62
2019-03-01T06:43:11.048Z,5.62
2019-03-01T06:44:11.053Z,5.62
2019-03-01T06:45:11.035Z,5.62
2019-03-01T06:46:11.080Z,5.62
2019-03-01T06:47:11.003Z,5.62
2019-03-01T06:48:10.996Z,5.62
2019-03-01T06:49:10.982Z,5.62
2019-03-01T06:50:13.028Z,5.62
2019-03-01T06:51:10.982Z,5.62
2019-03-01T06:52:11.016Z,5.62
2019-03-01T06:53:10.991Z,5.62
2019-03-01T06:54:10.930Z,5.62
2019-03-01T06:55:10.917Z,5.62
2019-03-01T06:56:10.918Z,5.62
2019-03-01T06:57:10.917Z,5.62
2019-03-01T06:58:10.892Z,5.62
2019-03-01T06:59:10.908Z,5.62
2019-03-01T07:00:10.892Z,5.62
2019-03-01T07:01:10.855Z,5.62
2019-03-01T07:02:10.850Z,5.62
2019-03-01T07:03:10.870Z,5.62
2019-03-01T07:04:10.876Z,5.62
2019-03-01T07:05:10.831Z,5.62
2019-03-01T07:06:10.868Z,5.62
2019-03-01T07:07:10.792Z,5.62
2019-03-01T07:08:10.789Z,5.62
2019-03-01T07:09:10.801Z,5.62
2019-03-01T07:10:10.756Z,5.62
2019-03-01T07:11:10.751Z,5.62
2019-03-01T07:12:10.752Z,5.62
2019-03-01T07:13:10.736Z,5.62
2019-03-01T07:14:10.745Z,5.62
2019-03-01T07:15:10.703Z,5.62
2019-03-01T07:16:11.260Z,5.62
2019-03-01T07:17:10.743Z,5.62
2019-03-01T07:18:10.675Z,5.62
2019-03-01T07:19:10.659Z,5.62
2019-03-01T07:20:12.637Z,5.62
2019-03-01T07:21:10.635Z,5.62
2019-03-01T07:22:10.631Z,5.62
2019-03-01T07:23:10.628Z,5.62
2019-03-01T07:24:10.694Z,5.62
2019-03-01T07:25:10.630Z,5.62
2019-03-01T07:26:10.578Z,5.62
2019-03-01T07:27:12.273Z,5.62
2019-03-01T07:28:10.565Z,5.62
2019-03-01T07:29:10.561Z,5.62
2019-03-01T07:30:10.579Z,5.62
2019-03-01T07:31:10.536Z,5.62
2019-03-01T07:32:10.513Z,5.62
2019-03-01T07:33:10.554Z,5.62
2019-03-01T07:34:10.514Z,5.62
2019-03-01T07:35:10.494Z,5.62
2019-03-01T07:36:10.512Z,5.62
2019-03-01T07:37:10.498Z,5.62
2019-03-01T07:38:10.462Z,5.62
2019-03-01T07:39:10.437Z,5.62
2019-03-01T07:40:10.437Z,5.62
2019-03-01T07:41:10.444Z,5.62
2019-03-01T07:42:10.453Z,5.62
2019-03-01T07:43:10.405Z,5.62
2019-03-01T07:44:10.430Z,11.25
2019-03-01T07:45:10.381Z,11.25
2019-03-01T07:46:10.365Z,11.25
2019-03-01T07:47:10.389Z,11.25
2019-03-01T07:48:10.363Z,11.25
2019-03-01T07:49:10.342Z,11.25
2019-03-01T07:50:10.446Z,11.25
2019-03-01T07:51:10.357Z,11.25
2019-03-01T07:52:10.305Z,11.25
2019-03-01T07:53:10.325Z,11.25
2019-03-01T07:54:13.298Z,11.25
2019-03-01T07:55:11.276Z,11.25
2019-03-01T07:56:10.292Z,11.25
2019-03-01T07:57:11.425Z,11.25
2019-03-01T07:58:10.238Z,11.25
2019-03-01T07:59:10.224Z,11.25
2019-03-01T08:00:10.860Z,11.25
2019-03-01T08:01:10.212Z,11.25
2019-03-01T08:02:10.201Z,11.25
2019-03-01T08:03:11.972Z,11.25
2019-03-01T08:04:10.182Z,11.25
2019-03-01T08:05:10.187Z,5.62
2019-03-01T08:06:13.054Z,11.25
2019-03-01T08:07:10.147Z,11.25
2019-03-01T08:08:10.155Z,11.25
2019-03-01T08:09:10.118Z,11.25
2019-03-01T08:10:10.103Z,11.25
2019-03-01T08:11:10.116Z,11.25
2019-03-01T08:12:10.090Z,11.25
2019-03-01T08:13:10.095Z,11.25
2019-03-01T08:14:10.349Z,11.25
2019-03-01T08:15:10.061Z,16.88
2019-03-01T08:16:10.047Z,16.88
2019-03-01T08:17:10.043Z,16.88
2019-03-01T08:18:10.060Z,16.88
2019-03-01T08:19:10.030Z,16.88
2019-03-01T08:20:10.008Z,22.50
2019-03-01T08:21:10.384Z,22.50
2019-03-01T08:22:09.973Z,22.50
2019-03-01T08:23:09.963Z,28.12
2019-03-01T08:24:10.962Z,22.50
2019-03-01T08:25:23.496Z,22.50
2019-03-01T08:26:10.933Z,22.50
2019-03-01T08:27:11.126Z,22.50
2019-03-01T08:28:09.902Z,28.12
2019-03-01T08:29:18.502Z,28.12
2019-03-01T08:30:10.504Z,22.50
2019-03-01T08:31:09.982Z,22.50
2019-03-01T08:32:09.876Z,22.50
2019-03-01T08:33:09.853Z,22.50
2019-03-01T08:34:09.844Z,22.50
2019-03-01T08:35:09.868Z,28.12
2019-03-01T08:36:09.831Z,33.75
2019-03-01T08:37:09.823Z,33.75
2019-03-01T08:38:09.801Z,33.75
2019-03-01T08:39:09.789Z,39.38
2019-03-01T08:40:11.456Z,39.38
2019-03-01T08:41:09.770Z,39.38
2019-03-01T08:42:09.768Z,50.62
2019-03-01T08:43:13.022Z,56.25
2019-03-01T08:44:09.749Z,56.25
2019-03-01T08:45:09.732Z,50.62
2019-03-01T08:46:10.461Z,45.00
2019-03-01T08:47:09.710Z,45.00
2019-03-01T08:48:09.701Z,45.00
2019-03-01T08:49:10.524Z,45.00
2019-03-01T08:50:09.685Z,45.00
2019-03-01T08:51:09.693Z,39.38
2019-03-01T08:52:09.648Z,39.38
2019-03-01T08:53:11.518Z,33.75
2019-03-01T08:54:10.638Z,33.75
2019-03-01T08:55:09.629Z,33.75
2019-03-01T08:56:10.927Z,33.75
2019-03-01T08:57:09.604Z,28.12
2019-03-01T08:58:09.584Z,28.12
2019-03-01T08:59:09.579Z,22.50
2019-03-01T09:00:09.572Z,28.12
2019-03-01T09:01:09.784Z,28.12
2019-03-01T09:02:09.579Z,28.12
2019-03-01T09:03:09.552Z,28.12
2019-03-01T09:04:09.535Z,33.75
2019-03-01T09:05:09.885Z,33.75
2019-03-01T09:06:09.595Z,33.75
2019-03-01T09:07:09.506Z,33.75
2019-03-01T09:08:09.485Z,28.12
2019-03-01T09:09:09.480Z,28.12
2019-03-01T09:10:09.457Z,28.12
2019-03-01T09:11:10.418Z,22.50
2019-03-01T09:12:09.463Z,22.50
2019-03-01T09:13:09.444Z,22.50
2019-03-01T09:14:09.417Z,22.50
2019-03-01T09:15:09.418Z,22.50
2019-03-01T09:16:09.406Z,22.50
2019-03-01T09:17:09.391Z,22.50
2019-03-01T09:18:11.574Z,22.50
2019-03-01T09:19:09.404Z,22.50
2019-03-01T09:20:09.358Z,22.50
2019-03-01T09:21:12.276Z,22.50
2019-03-01T09:22:09.330Z,28.12
2019-03-01T09:23:21.207Z,28.12
2019-03-01T09:24:10.347Z,28.12
2019-03-01T09:25:09.290Z,28.12
2019-03-01T09:26:09.351Z,28.12
2019-03-01T09:27:09.332Z,33.75
2019-03-01T09:28:09.264Z,45.00
2019-03-01T09:29:09.299Z,50.62
2019-03-01T09:30:09.242Z,45.00
2019-03-01T09:31:09.733Z,39.38
2019-03-01T09:32:09.220Z,39.38
2019-03-01T09:33:09.266Z,33.75
2019-03-01T09:34:09.387Z,33.75
2019-03-01T09:35:09.258Z,39.38
2019-03-01T09:36:09.219Z,39.38
2019-03-01T09:37:09.171Z,33.75
2019-03-01T09:38:11.251Z,33.75
2019-03-01T09:39:09.179Z,33.75
2019-03-01T09:40:09.249Z,28.12
2019-03-01T09:41:09.309Z,22.50
2019-03-01T09:42:12.414Z,28.12
2019-03-01T09:43:10.265Z,33.75
2019-03-01T09:44:09.577Z,33.75
2019-03-01T09:45:10.458Z,28.12
2019-03-01T09:46:10.739Z,22.50
2019-03-01T09:47:09.165Z,16.88
2019-03-01T09:48:12.198Z,16.88
2019-03-01T09:49:09.233Z,22.50
2019-03-01T09:50:09.115Z,22.50
2019-03-01T09:51:10.603Z,33.75
2019-03-01T09:52:09.033Z,33.75
2019-03-01T09:53:09.767Z,28.12
2019-03-01T09:54:09.418Z,28.12
2019-03-01T09:55:09.022Z,33.75
2019-03-01T09:56:09.689Z,33.75
2019-03-01T09:57:08.953Z,39.38
2019-03-01T09:58:08.947Z,33.75
2019-03-01T09:59:09.001Z,33.75
2019-03-01T10:00:08.929Z,39.38
2019-03-01T10:01:08.944Z,50.62
2019-03-01T10:02:08.911Z,56.25
2019-03-01T10:03:08.910Z,50.62
2019-03-01T10:04:08.923Z,45.00
2019-03-01T10:05:08.860Z,45.00
2019-03-01T10:06:08.891Z,45.00
2019-03-01T10:07:08.916Z,45.00
2019-03-01T10:08:08.843Z,50.62
2019-03-01T10:09:08.920Z,50.62
2019-03-01T10:10:08.849Z,45.00
2019-03-01T10:11:08.853Z,39.38
2019-03-01T10:12:08.821Z,45.00
2019-03-01T10:13:08.822Z,50.62
2019-03-01T10:14:08.780Z,50.62
2019-03-01T10:15:08.870Z,50.62
2019-03-01T10:16:08.776Z,56.25
2019-03-01T10:17:08.771Z,73.12
2019-03-01T10:18:08.743Z,61.88
2019-03-01T10:19:08.752Z,56.25
2019-03-01T10:20:08.786Z,61.88
2019-03-01T10:21:08.800Z,61.88
2019-03-01T10:22:08.703Z,56.25
2019-03-01T10:23:08.711Z,50.62
2019-03-01T10:24:08.704Z,50.62
2019-03-01T10:25:08.697Z,45.00
2019-03-01T10:26:08.705Z,45.00
2019-03-01T10:27:08.627Z,45.00
2019-03-01T10:28:08.619Z,45.00
2019-03-01T10:29:08.602Z,39.38
2019-03-01T10:30:08.600Z,39.38
2019-03-01T10:31:08.624Z,45.00
2019-03-01T10:32:08.570Z,50.62
2019-03-01T10:33:08.565Z,50.62
2019-03-01T10:34:08.562Z,50.62
2019-03-01T10:35:08.547Z,45.00
2019-03-01T10:36:08.559Z,45.00
2019-03-01T10:37:08.546Z,50.62
2019-03-01T10:38:08.509Z,50.62
2019-03-01T10:39:08.532Z,45.00
2019-03-01T10:40:08.479Z,45.00
2019-03-01T10:41:08.470Z,45.00
2019-03-01T10:42:08.464Z,39.38
2019-03-01T10:43:08.454Z,39.38
2019-03-01T10:44:08.445Z,45.00
2019-03-01T10:45:08.461Z,50.62
2019-03-01T10:46:08.412Z,56.25
2019-03-01T10:47:08.409Z,50.62
2019-03-01T10:48:08.424Z,45.00
2019-03-01T10:49:08.384Z,45.00
2019-03-01T10:50:08.424Z,50.62
2019-03-01T10:51:08.379Z,50.62
2019-03-01T10:52:08.377Z,50.62
2019-03-01T10:53:08.355Z,45.00
2019-03-01T10:54:08.327Z,45.00
2019-03-01T10:55:08.415Z,39.38
2019-03-01T10:56:08.350Z,39.38
2019-03-01T10:57:08.298Z,39.38
2019-03-01T10:58:08.305Z,39.38
2019-03-01T10:59:08.279Z,39.38
2019-03-01T11:00:08.304Z,28.12
2019-03-01T11:01:08.349Z,28.12
2019-03-01T11:02:08.257Z,28.12
2019-03-01T11:03:08.265Z,28.12
2019-03-01T11:04:08.220Z,28.12
2019-03-01T11:05:08.215Z,28.12
2019-03-01T11:06:08.247Z,33.75
2019-03-01T11:07:08.196Z,28.12
2019-03-01T11:08:08.182Z,28.12
2019-03-01T11:09:08.168Z,28.12
2019-03-01T11:10:08.158Z,28.12
2019-03-01T11:11:08.185Z,28.12
2019-03-01T11:12:08.179Z,28.12
2019-03-01T11:13:08.141Z,28.12
2019-03-01T11:14:08.125Z,33.75
2019-03-01T11:15:08.106Z,33.75
2019-03-01T11:16:08.088Z,33.75
2019-03-01T11:17:08.117Z,39.38
2019-03-01T11:18:08.070Z,39.38
2019-03-01T11:19:08.097Z,39.38
2019-03-01T11:20:08.050Z,39.38
2019-03-01T11:21:08.117Z,39.38
2019-03-01T11:22:08.030Z,33.75
2019-03-01T11:23:08.030Z,28.12
2019-03-01T11:24:08.006Z,28.12
2019-03-01T11:25:08.001Z,28.12
2019-03-01T11:26:08.017Z,28.12
2019-03-01T11:27:12.811Z,28.12
2019-03-01T11:28:10.529Z,33.75
2019-03-01T11:29:07.981Z,33.75
2019-03-01T11:30:07.940Z,39.38
2019-03-01T11:31:07.923Z,39.38
2019-03-01T11:32:07.944Z,39.38
2019-03-01T11:33:07.908Z,45.00
2019-03-01T11:34:07.902Z,45.00
2019-03-01T11:35:07.880Z,56.25
2019-03-01T11:36:07.877Z,61.88
2019-03-01T11:37:07.912Z,56.25
2019-03-01T11:38:07.847Z,67.50
2019-03-01T11:39:07.836Z,73.12
2019-03-01T11:40:07.827Z,73.12
2019-03-01T11:41:07.816Z,67.50
2019-03-01T11:42:07.816Z,61.88
2019-03-01T11:43:07.833Z,67.50
2019-03-01T11:44:07.789Z,73.12
2019-03-01T11:45:07.769Z,67.50
2019-03-01T11:46:07.767Z,67.50
2019-03-01T11:47:07.766Z,67.50
2019-03-01T11:48:07.779Z,61.88
2019-03-01T11:49:07.735Z,61.88
2019-03-01T11:50:07.715Z,67.50
2019-03-01T11:51:07.706Z,78.75
2019-03-01T11:52:07.698Z,84.38
2019-03-01T11:53:07.708Z,78.75
2019-03-01T11:54:15.836Z,73.12
2019-03-01T11:55:07.664Z,67.50
2019-03-01T11:56:07.645Z,67.50
2019-03-01T11:57:07.634Z,61.88
2019-03-01T11:58:07.681Z,61.88
2019-03-01T11:59:07.616Z,56.25
2019-03-01T12:00:07.604Z,50.62
2019-03-01T12:01:16.701Z,50.62
2019-03-01T12:02:08.576Z,50.62
2019-03-01T12:03:07.567Z,50.62
2019-03-01T12:04:07.603Z,56.25
2019-03-01T12:05:07.552Z,50.62
2019-03-01T12:06:07.541Z,50.62
2019-03-01T12:07:07.561Z,50.62
2019-03-01T12:08:07.519Z,56.25
2019-03-01T12:09:07.502Z,56.25
2019-03-01T12:10:07.514Z,50.62
2019-03-01T12:11:07.489Z,45.00
2019-03-01T12:12:07.476Z,39.38
2019-03-01T12:13:07.467Z,39.38
2019-03-01T12:14:07.492Z,39.38
2019-03-01T12:15:07.479Z,39.38
2019-03-01T12:16:07.433Z,45.00
2019-03-01T12:17:07.421Z,45.00
2019-03-01T12:18:07.426Z,50.62
2019-03-01T12:19:07.402Z,50.62
2019-03-01T12:20:07.413Z,56.25
2019-03-01T12:21:07.370Z,50.62
2019-03-01T12:22:16.716Z,50.62
2019-03-01T12:23:08.353Z,50.62
2019-03-01T12:24:07.348Z,50.62
2019-03-01T12:25:07.383Z,45.00
2019-03-01T12:26:07.341Z,45.00
2019-03-01T12:27:07.322Z,45.00
2019-03-01T12:28:07.298Z,45.00
2019-03-01T12:29:07.291Z,50.62
2019-03-01T12:30:07.282Z,56.25
2019-03-01T12:31:07.299Z,61.88
2019-03-01T12:32:07.253Z,73.12
2019-03-01T12:33:07.245Z,67.50
2019-03-01T12:34:07.231Z,61.88
2019-03-01T12:35:07.222Z,56.25
2019-03-01T12:36:07.254Z,56.25
2019-03-01T12:37:07.204Z,61.88
2019-03-01T12:38:07.193Z,73.12
2019-03-01T12:39:07.187Z,78.75
2019-03-01T12:40:07.169Z,73.12
2019-03-01T12:41:07.189Z,67.50
2019-03-01T12:42:07.146Z,61.88
2019-03-01T12:43:07.133Z,61.88
2019-03-01T12:44:07.127Z,61.88
2019-03-01T12:45:07.115Z,61.88
2019-03-01T12:46:07.103Z,56.25
2019-03-01T12:47:07.109Z,56.25
2019-03-01T12:48:07.794Z,61.88
2019-03-01T12:49:07.074Z,56.25
2019-03-01T12:50:07.080Z,56.25
2019-03-01T12:51:07.056Z,56.25
2019-03-01T12:52:07.129Z,50.62
2019-03-01T12:53:07.069Z,50.62
2019-03-01T12:54:07.013Z,50.62
2019-03-01T12:55:07.002Z,56.25
2019-03-01T12:56:06.997Z,50.62
2019-03-01T12:57:06.985Z,45.00
2019-03-01T12:58:07.010Z,45.00
2019-03-01T12:59:06.967Z,45.00
2019-03-01T13:00:06.946Z,45.00
2019-03-01T13:01:06.936Z,45.00
2019-03-01T13:02:06.931Z,45.00
2019-03-01T13:03:09.013Z,45.00
2019-03-01T13:04:06.904Z,39.38
2019-03-01T13:05:06.893Z,45.00
2019-03-01T13:06:06.913Z,45.00
2019-03-01T13:07:06.869Z,39.38